createdAt,value
2022-11-02T00:00:01.192Z,9.34
2022-11-02T00:02:30.767Z,9.35
2022-11-02T00:04:58.998Z,9.25
2022-11-02T00:07:27.064Z,9.27
2022-11-02T00:09:55.205Z,9.30
2022-11-02T00:12:23.306Z,9.29
2022-11-02T00:14:51.458Z,9.27
2022-11-02T00:17:19.579Z,9.27
2022-11-02T00:19:49.503Z,9.26
2022-11-02T00:22:17.828Z,9.23
2022-11-02T00:24:46.598Z,9.25
2022-11-02T00:27:14.747Z,9.25
2022-11-02T00:29:43.061Z,9.24
2022-11-02T00:32:11.170Z,9.30
2022-11-02T00:34:39.399Z,9.31
2022-11-02T00:37:08.939Z,9.33
2022-11-02T00:39:37.321Z,9.31
2022-11-02T00:42:05.746Z,9.40
2022-11-02T00:44:33.801Z,9.38
2022-11-02T00:47:01.979Z,9.41
2022-11-02T00:49:30.088Z,9.40
2022-11-02T00:51:58.358Z,9.31
2022-11-02T00:54:28.667Z,9.35
2022-11-02T00:56:56.994Z,9.38
2022-11-02T00:59:25.118Z,9.31
2022-11-02T01:01:53.424Z,9.32
2022-11-02T01:04:21.617Z,9.27
2022-11-02T01:06:49.760Z,9.30
2022-11-02T01:09:18.162Z,9.29
2022-11-02T01:11:47.717Z,9.26
2022-11-02T01:14:15.862Z,9.21
2022-11-02T01:19:17.778Z,9.19
2022-11-02T01:21:45.898Z,9.17
2022-11-02T01:24:14.158Z,9.20
2022-11-02T01:26:42.320Z,9.19
2022-11-02T01:29:11.858Z,9.23
2022-11-02T01:31:40.039Z,9.20
2022-11-02T01:34:08.531Z,9.11
2022-11-02T01:36:36.678Z,9.21
2022-11-02T01:39:05.398Z,9.25
2022-11-02T01:41:33.578Z,9.28
2022-11-02T01:44:04.240Z,9.24
2022-11-02T01:46:39.118Z,9.24
2022-11-02T01:49:14.207Z,9.25
2022-11-02T01:51:44.958Z,9.22
2022-11-02T01:54:15.538Z,9.21
2022-11-02T01:56:45.829Z,9.20
2022-11-02T01:59:17.188Z,9.16
2022-11-02T02:01:47.848Z,9.20
2022-11-02T02:04:16.641Z,9.19
2022-11-02T02:06:45.598Z,9.18
2022-11-02T02:09:14.908Z,9.24
2022-11-02T02:11:43.038Z,9.29
2022-11-02T02:14:13.242Z,9.27
2022-11-02T02:16:58.954Z,9.33
2022-11-02T02:19:37.677Z,9.31
2022-11-02T02:22:18.250Z,9.23
2022-11-02T02:24:51.038Z,9.20
2022-11-02T02:27:23.159Z,9.20
2022-11-02T02:30:05.169Z,9.10
2022-11-02T02:32:39.966Z,9.15
2022-11-02T02:35:14.818Z,9.25
2022-11-02T02:37:48.687Z,9.23
2022-11-02T02:40:20.046Z,9.23
2022-11-02T02:42:51.538Z,9.27
2022-11-02T02:45:24.150Z,9.27
2022-11-02T02:47:57.369Z,9.21
2022-11-02T02:50:28.298Z,9.23
2022-11-02T02:52:56.776Z,9.25
2022-11-02T02:55:29.518Z,9.22
2022-11-02T02:57:58.470Z,9.26
2022-11-02T03:00:28.106Z,9.12
2022-11-02T03:03:02.075Z,9.09
2022-11-02T03:05:32.437Z,9.05
2022-11-02T03:08:05.251Z,9.03
2022-11-02T03:10:36.627Z,8.98
2022-11-02T03:13:24.897Z,8.93
2022-11-02T03:15:59.904Z,8.98
2022-11-02T03:18:35.836Z,8.96
2022-11-02T03:21:08.818Z,8.92
2022-11-02T03:23:40.101Z,8.95
2022-11-02T03:26:11.369Z,8.91
2022-11-02T03:28:46.441Z,8.88
2022-11-02T03:31:20.598Z,8.76
2022-11-02T03:33:55.728Z,8.78
2022-11-02T03:36:26.984Z,8.67
2022-11-02T03:38:58.202Z,8.62
2022-11-02T03:41:26.999Z,8.58
2022-11-02T03:43:57.271Z,8.57
2022-11-02T03:46:27.311Z,8.55
2022-11-02T03:48:56.389Z,8.51
2022-11-02T03:51:25.382Z,8.54
2022-11-02T03:54:00.140Z,8.58
2022-11-02T03:56:33.512Z,8.60
2022-11-02T03:59:02.221Z,8.60
2022-11-02T04:01:33.341Z,8.52
2022-11-02T04:04:02.902Z,8.50
2022-11-02T04:06:31.625Z,8.48
2022-11-02T04:08:59.983Z,8.51
2022-11-02T04:11:46.270Z,8.53
2022-11-02T04:14:32.071Z,8.42
2022-11-02T04:17:19.205Z,8.40
2022-11-02T04:19:49.853Z,8.26
2022-11-02T04:22:36.005Z,8.19
2022-11-02T04:25:22.797Z,8.16
2022-11-02T04:27:52.416Z,8.19
2022-11-02T04:30:22.728Z,8.21
2022-11-02T04:33:09.838Z,8.24
2022-11-02T04:35:38.681Z,8.28
2022-11-02T04:38:24.443Z,8.28
2022-11-02T04:41:13.316Z,8.34
2022-11-02T04:43:41.473Z,8.28
2022-11-02T04:46:09.686Z,8.23
2022-11-02T04:48:39.176Z,8.23
2022-11-02T04:51:07.703Z,8.21
2022-11-02T04:53:36.418Z,8.22
2022-11-02T04:56:04.661Z,8.23
2022-11-02T04:58:32.933Z,8.25
2022-11-02T05:01:06.277Z,8.20
2022-11-02T05:03:34.492Z,8.25
2022-11-02T05:06:04.463Z,8.30
2022-11-02T05:08:32.722Z,8.24
2022-11-02T05:11:01.386Z,8.21
2022-11-02T05:13:29.884Z,8.17
2022-11-02T05:15:58.323Z,8.16
2022-11-02T05:18:27.195Z,8.19
2022-11-02T05:20:56.902Z,8.19
2022-11-02T05:23:26.592Z,8.18
2022-11-02T05:25:55.358Z,8.16
2022-11-02T05:28:24.012Z,8.15
2022-11-02T05:30:52.322Z,8.05
2022-11-02T05:33:20.571Z,8.02
2022-11-02T05:35:49.076Z,8.05
2022-11-02T05:38:17.382Z,8.05
2022-11-02T05:40:53.224Z,7.98
2022-11-02T05:43:21.896Z,7.98
2022-11-02T05:45:54.681Z,8.06
2022-11-02T05:48:23.394Z,8.01
2022-11-02T05:50:51.726Z,8.01
2022-11-02T05:53:19.822Z,7.96
2022-11-02T05:55:49.461Z,7.95
2022-11-02T05:58:17.616Z,7.86
2022-11-02T06:00:45.832Z,7.90
2022-11-02T06:03:13.954Z,7.88
2022-11-02T06:05:42.410Z,7.79
2022-11-02T06:08:10.614Z,7.81
2022-11-02T06:10:38.883Z,7.85
2022-11-02T06:13:08.443Z,7.88
2022-11-02T06:15:36.803Z,7.91
2022-11-02T06:18:05.134Z,7.91
2022-11-02T06:20:33.303Z,7.85
2022-11-02T06:23:01.771Z,7.78
2022-11-02T06:25:30.381Z,7.79
2022-11-02T06:27:58.841Z,7.74
2022-11-02T06:30:28.482Z,7.76
2022-11-02T06:32:56.588Z,7.72
2022-11-02T06:35:25.154Z,7.78
2022-11-02T06:37:53.241Z,7.85
2022-11-02T06:40:24.176Z,7.88
2022-11-02T06:43:15.484Z,7.97
2022-11-02T06:45:46.948Z,8.02
2022-11-02T06:48:15.167Z,8.04
2022-11-02T06:50:43.408Z,7.99
2022-11-02T06:53:11.603Z,8.01
2022-11-02T06:55:39.764Z,8.04
2022-11-02T06:58:08.017Z,8.19
2022-11-02T07:00:36.600Z,8.26
2022-11-02T07:03:08.098Z,8.20
2022-11-02T07:05:36.803Z,8.05
2022-11-02T07:08:06.368Z,7.96
2022-11-02T07:10:35.665Z,7.94
2022-11-02T07:13:04.305Z,7.96
2022-11-02T07:15:32.627Z,7.94
2022-11-02T07:18:00.821Z,7.96
2022-11-02T07:20:30.700Z,7.87
2022-11-02T07:23:00.128Z,7.87
2022-11-02T07:25:31.205Z,7.75
2022-11-02T07:28:00.444Z,7.75
2022-11-02T07:30:28.761Z,7.79
2022-11-02T07:32:56.991Z,7.80
2022-11-02T07:35:25.522Z,7.86
2022-11-02T07:37:59.084Z,7.97
2022-11-02T07:40:28.413Z,7.98
2022-11-02T07:42:56.997Z,8.12
2022-11-02T07:45:25.575Z,8.21
2022-11-02T07:47:53.820Z,8.27
2022-11-02T07:50:23.537Z,8.48
2022-11-02T07:52:53.055Z,8.73
2022-11-02T07:55:24.163Z,8.81
2022-11-02T07:57:55.733Z,8.75
2022-11-02T08:00:23.961Z,8.73
2022-11-02T08:02:56.134Z,8.81
2022-11-02T08:05:24.323Z,8.85
2022-11-02T08:07:58.486Z,8.81
2022-11-02T08:10:29.034Z,8.67
2022-11-02T08:12:57.604Z,8.77
2022-11-02T08:15:26.073Z,8.84
2022-11-02T08:18:02.407Z,8.83
2022-11-02T08:20:31.126Z,8.89
2022-11-02T08:22:59.673Z,9.21
2022-11-02T08:25:29.287Z,9.25
2022-11-02T08:27:58.673Z,8.97
2022-11-02T08:30:27.026Z,9.30
2022-11-02T08:32:57.358Z,9.42
2022-11-02T08:35:25.782Z,9.99
2022-11-02T08:37:56.983Z,11.58
2022-11-02T08:40:25.429Z,12.52
2022-11-02T08:42:58.727Z,11.94
2022-11-02T08:45:26.924Z,11.07
2022-11-02T08:47:55.647Z,10.80
2022-11-02T08:50:24.988Z,10.71
2022-11-02T08:52:53.463Z,10.43
2022-11-02T08:55:21.963Z,10.30
2022-11-02T08:57:51.083Z,10.20
2022-11-02T09:00:22.352Z,10.26
2022-11-02T09:03:00.921Z,10.26
2022-11-02T09:05:29.724Z,10.09
2022-11-02T09:07:59.327Z,10.25
2022-11-02T09:10:28.586Z,10.34
2022-11-02T09:12:57.404Z,10.30
2022-11-02T09:15:27.325Z,10.45
2022-11-02T09:17:55.505Z,10.44
2022-11-02T09:20:24.023Z,10.62
2022-11-02T09:22:52.142Z,10.77
2022-11-02T09:25:20.601Z,10.96
2022-11-02T09:27:55.542Z,10.87
2022-11-02T09:30:24.801Z,11.08
2022-11-02T09:32:58.177Z,10.95
2022-11-02T09:35:27.172Z,10.91
2022-11-02T09:37:55.304Z,11.07
2022-11-02T09:40:24.856Z,11.17
2022-11-02T09:43:01.934Z,11.28
2022-11-02T09:45:31.050Z,11.44
2022-11-02T09:48:17.677Z,11.36
2022-11-02T09:50:51.173Z,11.38
2022-11-02T09:53:23.002Z,11.60
2022-11-02T09:55:53.683Z,12.06
2022-11-02T09:58:25.358Z,12.05
2022-11-02T10:01:01.616Z,12.36
2022-11-02T10:03:37.486Z,12.72
2022-11-02T10:06:09.883Z,12.73
2022-11-02T10:08:44.016Z,13.19
2022-11-02T10:11:24.729Z,13.16
2022-11-02T10:13:56.930Z,13.29
2022-11-02T10:16:27.983Z,13.61
2022-11-02T10:18:57.504Z,13.94
2022-11-02T10:21:29.061Z,14.12
2022-11-02T10:23:57.914Z,14.47
2022-11-02T10:26:29.642Z,14.58
2022-11-02T10:29:00.273Z,14.52
2022-11-02T10:31:31.333Z,14.12
2022-11-02T10:34:06.975Z,13.99
2022-11-02T10:36:43.165Z,14.17
2022-11-02T10:39:21.535Z,14.32
2022-11-02T10:42:03.895Z,14.40
2022-11-02T10:44:42.746Z,14.15
2022-11-02T10:47:15.790Z,14.22
2022-11-02T10:50:17.572Z,14.06
2022-11-02T10:52:47.454Z,13.58
2022-11-02T10:55:23.032Z,13.35
2022-11-02T10:57:52.053Z,13.07
2022-11-02T11:00:29.193Z,12.86
2022-11-02T11:03:08.481Z,12.73
2022-11-02T11:05:40.461Z,12.81
2022-11-02T11:08:21.844Z,12.80
2022-11-02T11:10:49.981Z,13.01
2022-11-02T11:16:14.715Z,13.39
2022-11-02T11:21:42.143Z,13.43
2022-11-02T11:24:21.772Z,13.38
2022-11-02T11:27:05.544Z,13.63
2022-11-02T11:29:34.703Z,13.58
2022-11-02T11:32:17.053Z,13.95
2022-11-02T11:34:48.265Z,13.92
2022-11-02T11:37:18.334Z,13.99
2022-11-02T11:39:52.397Z,13.79
2022-11-02T11:42:24.552Z,13.93
2022-11-02T11:44:58.443Z,14.00
2022-11-02T11:47:31.854Z,13.61
2022-11-02T11:50:10.359Z,13.72
2022-11-02T11:52:44.108Z,13.59
2022-11-02T11:55:24.197Z,13.44
2022-11-02T11:58:08.881Z,13.17
2022-11-02T12:00:37.221Z,13.29
2022-11-02T12:03:08.003Z,13.52
2022-11-02T12:05:44.357Z,13.60
2022-11-02T12:08:39.173Z,13.65
2022-11-02T12:11:19.482Z,13.95
2022-11-02T12:13:58.517Z,14.16
2022-11-02T12:16:34.897Z,14.09
2022-11-02T12:19:20.296Z,13.96
2022-11-02T12:21:59.942Z,14.17
2022-11-02T12:25:15.535Z,14.19
2022-11-02T12:27:52.222Z,14.30
2022-11-02T12:30:21.534Z,14.55
2022-11-02T12:33:10.997Z,14.23
2022-11-02T12:35:51.200Z,14.24
2022-11-02T12:38:47.267Z,14.53
2022-11-02T12:41:18.836Z,14.82
2022-11-02T12:43:49.591Z,15.04
2022-11-02T12:46:35.415Z,15.41
2022-11-02T12:49:19.663Z,15.14
2022-11-02T12:51:54.184Z,15.20
2022-11-02T12:54:23.303Z,15.16
2022-11-02T12:56:53.339Z,14.84
2022-11-02T12:59:25.211Z,14.92
2022-11-02T13:01:57.294Z,14.69
2022-11-02T13:04:30.133Z,14.61
2022-11-02T13:07:04.026Z,14.62
2022-11-02T13:09:34.716Z,14.50
2022-11-02T13:12:06.053Z,14.11
2022-11-02T13:14:41.149Z,14.22
2022-11-02T13:17:15.922Z,14.60
2022-11-02T13:19:46.777Z,14.69
2022-11-02T13:22:15.285Z,15.21
2022-11-02T13:24:47.071Z,16.08
2022-11-02T13:27:36.473Z,16.35
2022-11-02T13:30:11.567Z,15.98
2022-11-02T13:32:43.757Z,15.52
2022-11-02T13:35:17.203Z,16.23
2022-11-02T13:37:48.246Z,16.45
2022-11-02T13:40:25.613Z,16.42
2022-11-02T13:43:14.944Z,15.95
2022-11-02T13:45:59.960Z,15.52
2022-11-02T13:48:40.957Z,15.28
2022-11-02T13:51:25.933Z,15.14
2022-11-02T13:53:57.423Z,15.06
2022-11-02T13:56:27.560Z,14.58
2022-11-02T13:58:58.210Z,14.42
2022-11-02T14:01:28.786Z,14.24
2022-11-02T14:04:01.924Z,13.98
2022-11-02T14:06:32.316Z,13.82
2022-11-02T14:09:02.624Z,13.61
2022-11-02T14:11:38.767Z,13.59
2022-11-02T14:14:23.455Z,14.15
2022-11-02T14:17:17.622Z,14.18
2022-11-02T14:20:04.833Z,14.23
2022-11-02T14:22:33.670Z,13.97
2022-11-02T14:25:25.892Z,13.94
2022-11-02T14:27:55.733Z,14.06
2022-11-02T14:30:46.603Z,13.82
2022-11-02T14:33:26.041Z,13.72
2022-11-02T14:35:59.534Z,13.84
2022-11-02T14:38:59.276Z,13.82
2022-11-02T14:41:44.769Z,13.84
2022-11-02T14:44:27.742Z,14.09
2022-11-02T14:46:57.818Z,14.15
2022-11-02T14:49:29.264Z,13.90
2022-11-02T14:52:04.330Z,13.88
2022-11-02T14:54:34.651Z,13.63
2022-11-02T14:57:05.365Z,13.54
2022-11-02T14:59:35.273Z,13.59
2022-11-02T15:02:05.991Z,13.28
2022-11-02T15:04:36.273Z,13.00
2022-11-02T15:07:06.250Z,12.83
2022-11-02T15:09:55.452Z,12.62
2022-11-02T15:12:48.186Z,12.38
2022-11-02T15:15:37.842Z,12.28
2022-11-02T15:18:23.805Z,12.01
2022-11-02T15:21:25.014Z,12.01
2022-11-02T15:24:02.889Z,11.86
2022-11-02T15:26:40.675Z,11.73
2022-11-02T15:29:17.643Z,11.77
2022-11-02T15:31:52.461Z,11.83
2022-11-02T15:34:20.953Z,11.65
2022-11-02T15:36:52.473Z,11.63
2022-11-02T15:39:20.683Z,11.51
2022-11-02T15:41:54.274Z,11.45
2022-11-02T15:44:50.346Z,11.11
2022-11-02T15:47:25.890Z,11.02
2022-11-02T15:50:35.923Z,10.81
2022-11-02T15:53:34.677Z,10.59
2022-11-02T15:56:15.883Z,10.32
2022-11-02T15:59:00.133Z,10.21
2022-11-02T16:01:29.154Z,10.10
2022-11-02T16:03:59.659Z,9.92
2022-11-02T16:06:29.004Z,9.73
2022-11-02T16:08:59.060Z,9.58
2022-11-02T16:11:27.702Z,9.40
2022-11-02T16:14:16.655Z,9.21
2022-11-02T16:16:48.255Z,9.11
2022-11-02T16:19:20.194Z,8.98
2022-11-02T16:21:48.906Z,8.78
2022-11-02T16:24:18.903Z,8.59
2022-11-02T16:26:48.185Z,8.39
2022-11-02T16:29:23.996Z,8.26
2022-11-02T16:31:53.342Z,8.15
2022-11-02T16:34:23.653Z,8.42
2022-11-02T16:36:51.882Z,8.39
2022-11-02T16:39:23.564Z,8.31
2022-11-02T16:41:55.845Z,8.16
2022-11-02T16:44:26.659Z,8.03
2022-11-02T16:46:57.384Z,8.06
2022-11-02T16:49:27.174Z,7.89
2022-11-02T16:51:56.568Z,7.76
2022-11-02T16:54:31.923Z,7.63
2022-11-02T16:57:07.194Z,7.46
2022-11-02T16:59:40.164Z,7.43
2022-11-02T17:02:12.588Z,7.36
2022-11-02T17:04:43.514Z,7.24
2022-11-02T17:07:14.772Z,7.06
2022-11-02T17:09:44.423Z,7.02
2022-11-02T17:12:15.985Z,6.90
2022-11-02T17:14:45.421Z,6.84
2022-11-02T17:17:30.143Z,6.87
2022-11-02T17:20:09.967Z,6.77
2022-11-02T17:22:40.656Z,6.70
2022-11-02T17:25:22.689Z,6.65
2022-11-02T17:27:51.496Z,6.47
2022-11-02T17:30:46.865Z,6.48
2022-11-02T17:33:26.341Z,6.40
2022-11-02T17:35:56.384Z,6.29
2022-11-02T17:38:27.191Z,6.27
2022-11-02T17:40:56.937Z,6.34
2022-11-02T17:43:24.343Z,6.15
2022-11-02T17:45:57.406Z,6.27
2022-11-02T17:48:25.973Z,6.10
2022-11-02T17:50:55.502Z,6.10
2022-11-02T17:53:24.553Z,5.97
2022-11-02T17:55:53.905Z,5.91
2022-11-02T17:58:23.481Z,5.83
2022-11-02T18:00:54.043Z,5.86
2022-11-02T18:03:25.504Z,5.81
2022-11-02T18:05:59.777Z,5.76
2022-11-02T18:08:28.518Z,5.67
2022-11-02T18:10:57.525Z,5.69
2022-11-02T18:13:27.173Z,5.66
2022-11-02T18:15:55.353Z,5.58
2022-11-02T18:18:23.602Z,5.54
2022-11-02T18:20:51.775Z,5.44
2022-11-02T18:23:20.732Z,5.29
2022-11-02T18:25:50.948Z,5.29
2022-11-02T18:28:22.076Z,5.31
2022-11-02T18:30:51.878Z,5.30
2022-11-02T18:33:20.393Z,5.36
2022-11-02T18:35:48.588Z,5.32
2022-11-02T18:38:16.784Z,5.22
2022-11-02T18:40:44.991Z,5.20
2022-11-02T18:43:13.395Z,5.13
2022-11-02T18:45:41.563Z,5.10
2022-11-02T18:48:11.191Z,5.07
2022-11-02T18:50:39.377Z,5.04
2022-11-02T18:53:07.551Z,5.07
2022-11-02T18:55:36.031Z,5.25
2022-11-02T18:58:04.735Z,5.18
2022-11-02T19:00:33.103Z,5.30
2022-11-02T19:03:02.160Z,5.22
2022-11-02T19:05:49.196Z,5.17
2022-11-02T19:08:34.896Z,5.04
2022-11-02T19:11:03.176Z,5.02
2022-11-02T19:13:31.373Z,5.01
2022-11-02T19:16:00.464Z,5.01
2022-11-02T19:18:28.606Z,4.92
2022-11-02T19:20:58.170Z,4.87
2022-11-02T19:23:26.283Z,4.88
2022-11-02T19:25:54.444Z,4.74
2022-11-02T19:28:22.681Z,4.72
2022-11-02T19:30:50.863Z,4.63
2022-11-02T19:33:18.994Z,4.64
2022-11-02T19:35:57.365Z,4.65
2022-11-02T19:38:25.492Z,4.64
2022-11-02T19:41:02.368Z,4.68
2022-11-02T19:43:30.575Z,4.58
2022-11-02T19:46:02.400Z,4.55
2022-11-02T19:48:31.545Z,4.64
2022-11-02T19:51:08.032Z,4.63
2022-11-02T19:53:36.436Z,4.63
2022-11-02T19:56:04.740Z,4.55
2022-11-02T19:58:33.400Z,4.45
2022-11-02T20:01:07.416Z,4.38
2022-11-02T20:03:35.885Z,4.31
2022-11-02T20:06:04.956Z,4.34
2022-11-02T20:08:34.722Z,4.23
2022-11-02T20:11:03.960Z,4.21
2022-11-02T20:13:34.063Z,4.19
2022-11-02T20:16:02.461Z,4.29
2022-11-02T20:18:30.755Z,4.26
2022-11-02T20:21:04.289Z,4.14
2022-11-02T20:23:33.183Z,4.26
2022-11-02T20:26:04.890Z,4.13
2022-11-02T20:28:33.152Z,4.04
2022-11-02T20:31:01.254Z,3.96
2022-11-02T20:33:29.465Z,3.87
2022-11-02T20:35:58.122Z,3.77
2022-11-02T20:38:26.783Z,3.86
2022-11-02T20:40:54.906Z,3.79
2022-11-02T20:43:24.545Z,3.76
2022-11-02T20:48:51.722Z,3.67
2022-11-02T20:51:21.484Z,3.72
2022-11-02T20:53:50.270Z,3.81
2022-11-02T20:56:19.242Z,3.85
2022-11-02T20:58:55.486Z,3.73
2022-11-02T21:01:24.643Z,3.66
2022-11-02T21:03:52.893Z,3.61
2022-11-02T21:06:21.062Z,3.60
2022-11-02T21:08:49.207Z,3.62
2022-11-02T21:11:34.785Z,3.56
2022-11-02T21:14:04.413Z,3.51
2022-11-02T21:16:32.686Z,3.48
2022-11-02T21:19:00.883Z,3.49
2022-11-02T21:21:29.303Z,3.45
2022-11-02T21:23:57.523Z,3.44
2022-11-02T21:26:25.695Z,3.47
2022-11-02T21:28:53.835Z,3.53
2022-11-02T21:31:24.052Z,3.51
2022-11-02T21:33:52.198Z,3.38
2022-11-02T21:36:20.472Z,3.35
2022-11-02T21:38:48.782Z,3.43
2022-11-02T21:41:19.713Z,3.28
2022-11-02T21:43:48.002Z,3.24
2022-11-02T21:46:16.312Z,3.13
2022-11-02T21:48:45.888Z,3.19
2022-11-02T21:51:16.463Z,3.17
2022-11-02T21:53:45.664Z,3.09
2022-11-02T21:56:17.347Z,3.10
2022-11-02T21:58:46.620Z,3.15
2022-11-02T22:01:34.440Z,3.10
2022-11-02T22:04:04.754Z,2.96
2022-11-02T22:06:33.214Z,2.99
2022-11-02T22:09:01.656Z,3.05
2022-11-02T22:11:31.817Z,2.99
2022-11-02T22:14:00.987Z,3.00
2022-11-02T22:16:31.880Z,2.88
2022-11-02T22:19:01.569Z,2.80
2022-11-02T22:21:32.927Z,2.82
2022-11-02T22:24:01.081Z,2.72
2022-11-02T22:26:30.863Z,2.65
2022-11-02T22:29:01.010Z,2.59
2022-11-02T22:31:30.727Z,2.52
2022-11-02T22:34:00.446Z,2.63
2022-11-02T22:36:31.046Z,2.62
2022-11-02T22:38:59.582Z,2.54
2022-11-02T22:41:29.685Z,2.65
2022-11-02T22:43:59.404Z,2.53
2022-11-02T22:46:28.714Z,2.53
2022-11-02T22:48:58.203Z,2.46
2022-11-02T22:51:27.923Z,2.51
2022-11-02T22:53:57.763Z,2.44
2022-11-02T22:56:25.992Z,2.47
2022-11-02T22:58:54.113Z,2.47
2022-11-02T23:01:24.482Z,2.51
2022-11-02T23:03:53.013Z,2.49
2022-11-02T23:06:22.456Z,2.55
2022-11-02T23:08:52.004Z,2.48
2022-11-02T23:11:22.023Z,2.53
2022-11-02T23:13:52.162Z,2.59
2022-11-02T23:16:24.250Z,2.67
2022-11-02T23:19:22.046Z,2.71
2022-11-02T23:22:08.876Z,2.77
2022-11-02T23:24:54.731Z,2.81
2022-11-02T23:27:24.563Z,2.77
2022-11-02T23:30:10.465Z,2.70
2022-11-02T23:32:39.573Z,2.54
2022-11-02T23:35:25.524Z,2.46
2022-11-02T23:38:03.465Z,2.43
2022-11-02T23:40:32.047Z,2.45
2022-11-02T23:43:01.644Z,2.49
2022-11-02T23:45:29.836Z,2.43
2022-11-02T23:48:01.563Z,2.33
2022-11-02T23:50:49.536Z,2.30
2022-11-02T23:53:37.304Z,2.25
2022-11-02T23:56:23.793Z,2.15
2022-11-02T23:59:06.683Z,2.35
